createdAt,value
2016-10-23T00:00:01.078Z,1000.38
2016-10-23T00:00:22.795Z,1000.42
2016-10-23T00:00:44.524Z,1000.37
2016-10-23T00:01:06.272Z,1000.39
2016-10-23T00:01:29.115Z,1000.42
2016-10-23T00:01:55.632Z,1000.46
2016-10-23T00:02:17.374Z,1000.45
2016-10-23T00:02:39.101Z,1000.37
2016-10-23T00:03:00.849Z,1000.45
2016-10-23T00:03:22.584Z,1000.45
2016-10-23T00:03:44.331Z,1000.44
2016-10-23T00:04:06.080Z,1000.47
2016-10-23T00:04:27.826Z,1000.43
2016-10-23T00:04:49.555Z,1000.41
2016-10-23T00:05:11.317Z,1000.42
2016-10-23T00:05:33.329Z,1000.41
2016-10-23T00:05:59.826Z,1000.38
2016-10-23T00:06:21.599Z,1000.37
2016-10-23T00:06:48.111Z,1000.43
2016-10-23T00:07:09.858Z,1000.28
2016-10-23T00:07:31.661Z,1000.27
2016-10-23T00:07:53.390Z,1000.38
2016-10-23T00:08:15.195Z,1000.35
2016-10-23T00:08:36.983Z,1000.29
2016-10-23T00:08:59.839Z,1000.34
2016-10-23T00:09:21.570Z,1000.30
2016-10-23T00:09:44.292Z,1000.35
2016-10-23T00:10:06.035Z,1000.28
2016-10-23T00:10:27.771Z,1000.33
2016-10-23T00:10:49.564Z,1000.31
2016-10-23T00:11:11.460Z,1000.34
2016-10-23T00:11:37.951Z,1000.31
2016-10-23T00:11:59.671Z,1000.27
2016-10-23T00:12:21.398Z,1000.26
2016-10-23T00:12:43.133Z,1000.33
2016-10-23T00:13:04.870Z,1000.33
2016-10-23T00:13:26.575Z,1000.33
2016-10-23T00:13:48.307Z,1000.29
2016-10-23T00:14:10.033Z,1000.36
2016-10-23T00:14:32.755Z,1000.27
2016-10-23T00:14:54.559Z,1000.27
2016-10-23T00:15:16.305Z,1000.25
2016-10-23T00:15:38.027Z,1000.18
2016-10-23T00:15:59.829Z,1000.20
2016-10-23T00:16:21.551Z,1000.26
2016-10-23T00:16:43.293Z,1000.27
2016-10-23T00:17:05.040Z,1000.26
2016-10-23T00:17:26.779Z,1000.31
2016-10-23T00:17:48.517Z,1000.25
2016-10-23T00:18:15.023Z,1000.24
2016-10-23T00:18:36.759Z,1000.27
2016-10-23T00:18:58.477Z,1000.32
2016-10-23T00:19:20.232Z,1000.24
2016-10-23T00:19:41.971Z,1000.23
2016-10-23T00:20:03.718Z,1000.19
2016-10-23T00:20:25.565Z,1000.20
2016-10-23T00:20:47.307Z,1000.23
2016-10-23T00:21:09.088Z,1000.21
2016-10-23T00:21:30.960Z,1000.16
2016-10-23T00:21:52.810Z,1000.16
2016-10-23T00:22:14.617Z,1000.17
2016-10-23T00:22:36.371Z,1000.16
2016-10-23T00:22:58.230Z,1000.24
2016-10-23T00:23:19.986Z,1000.25
2016-10-23T00:23:41.843Z,1000.29
2016-10-23T00:24:03.719Z,1000.29
2016-10-23T00:24:25.479Z,1000.22
2016-10-23T00:24:47.266Z,1000.29
2016-10-23T00:25:08.998Z,1000.24
2016-10-23T00:25:30.755Z,1000.24
2016-10-23T00:25:52.479Z,1000.20
2016-10-23T00:26:19.004Z,1000.15
2016-10-23T00:26:41.739Z,1000.16
2016-10-23T00:27:03.468Z,1000.28
2016-10-23T00:27:25.200Z,1000.24
2016-10-23T00:27:46.936Z,1000.20
2016-10-23T00:28:08.671Z,1000.25
2016-10-23T00:28:30.418Z,1000.28
2016-10-23T00:28:52.157Z,1000.22
2016-10-23T00:29:13.984Z,1000.16
2016-10-23T00:29:35.770Z,1000.26
2016-10-23T00:29:57.534Z,1000.24
2016-10-23T00:30:20.256Z,1000.17
2016-10-23T00:30:41.981Z,1000.15
2016-10-23T00:31:08.496Z,1000.19
2016-10-23T00:31:30.217Z,1000.23
2016-10-23T00:31:51.993Z,1000.25
2016-10-23T00:32:13.731Z,1000.26
2016-10-23T00:32:36.458Z,1000.21
2016-10-23T00:32:58.179Z,1000.20
2016-10-23T00:33:19.910Z,1000.20
2016-10-23T00:33:41.744Z,1000.21
2016-10-23T00:34:03.479Z,1000.22
2016-10-23T00:34:25.238Z,1000.21
2016-10-23T00:34:47.082Z,1000.18
2016-10-23T00:35:08.904Z,1000.09
2016-10-23T00:35:30.652Z,1000.14
2016-10-23T00:35:52.438Z,1000.19
2016-10-23T00:36:43.589Z,1000.14
2016-10-23T00:37:05.312Z,1000.15
2016-10-23T00:37:27.043Z,1000.14
2016-10-23T00:37:48.801Z,1000.18
2016-10-23T00:38:10.665Z,1000.16
2016-10-23T00:38:32.447Z,1000.21
2016-10-23T00:38:54.178Z,1000.26
2016-10-23T00:39:15.895Z,1000.21
2016-10-23T00:39:37.622Z,1000.17
2016-10-23T00:39:59.343Z,1000.13
2016-10-23T00:40:21.094Z,1000.16
2016-10-23T00:40:42.823Z,1000.18
2016-10-23T00:41:04.556Z,1000.18
2016-10-23T00:41:26.291Z,1000.16
2016-10-23T00:41:52.792Z,1000.12
2016-10-23T00:42:14.521Z,1000.14
2016-10-23T00:42:36.267Z,1000.15
2016-10-23T00:42:57.995Z,1000.20
2016-10-23T00:43:19.732Z,1000.23
2016-10-23T00:43:46.227Z,1000.22
2016-10-23T00:44:11.006Z,1000.21
2016-10-23T00:44:33.741Z,1000.17
2016-10-23T00:44:55.518Z,1000.16
2016-10-23T00:45:17.282Z,1000.21
2016-10-23T00:45:41.835Z,1000.17
2016-10-23T00:46:03.588Z,1000.09
2016-10-23T00:46:25.324Z,1000.17
2016-10-23T00:46:47.063Z,1000.23
2016-10-23T00:47:08.785Z,1000.22
2016-10-23T00:47:30.567Z,1000.20
2016-10-23T00:47:52.310Z,1000.22
2016-10-23T00:48:14.037Z,1000.15
2016-10-23T00:48:35.996Z,1000.16
2016-10-23T00:48:57.617Z,1000.19
2016-10-23T00:49:19.347Z,1000.20
2016-10-23T00:49:41.069Z,1000.20
2016-10-23T00:50:02.793Z,1000.21
2016-10-23T00:50:24.548Z,1000.14
2016-10-23T00:50:46.311Z,1000.20
2016-10-23T00:51:09.036Z,1000.15
2016-10-23T00:51:30.761Z,1000.17
2016-10-23T00:51:57.252Z,1000.22
2016-10-23T00:52:19.025Z,1000.15
2016-10-23T00:52:40.777Z,1000.22
2016-10-23T00:53:02.508Z,1000.18
2016-10-23T00:53:24.240Z,1000.19
2016-10-23T00:53:45.963Z,1000.23
2016-10-23T00:54:07.693Z,1000.22
2016-10-23T00:54:29.426Z,1000.29
2016-10-23T00:54:51.150Z,1000.24
2016-10-23T00:55:12.881Z,1000.25
2016-10-23T00:55:34.684Z,1000.21
2016-10-23T00:55:56.458Z,1000.22
2016-10-23T00:56:18.198Z,1000.23
2016-10-23T00:56:39.946Z,1000.22
2016-10-23T00:57:01.765Z,1000.18
2016-10-23T00:57:23.477Z,1000.19
2016-10-23T00:57:45.227Z,1000.22
2016-10-23T00:58:06.961Z,1000.26
2016-10-23T00:58:28.688Z,1000.22
2016-10-23T00:58:50.413Z,1000.27
2016-10-23T00:59:12.140Z,1000.23
2016-10-23T00:59:33.918Z,1000.22
2016-10-23T00:59:55.665Z,1000.28
2016-10-23T01:00:17.512Z,1000.24
2016-10-23T01:00:39.365Z,1000.20
2016-10-23T01:01:01.094Z,1000.25
2016-10-23T01:01:22.853Z,1000.26
2016-10-23T01:01:44.598Z,1000.24
2016-10-23T01:02:06.404Z,1000.25
2016-10-23T01:02:28.150Z,1000.26
2016-10-23T01:02:49.907Z,1000.26
2016-10-23T01:03:12.642Z,1000.24
2016-10-23T01:03:34.462Z,1000.19
2016-10-23T01:03:56.194Z,1000.24
2016-10-23T01:04:18.924Z,1000.23
2016-10-23T01:04:40.653Z,1000.23
2016-10-23T01:05:02.444Z,1000.25
2016-10-23T01:05:24.172Z,1000.20
2016-10-23T01:05:45.898Z,1000.21
2016-10-23T01:06:07.629Z,1000.13
2016-10-23T01:06:29.352Z,1000.17
2016-10-23T01:06:51.086Z,1000.16
2016-10-23T01:07:12.821Z,1000.19
2016-10-23T01:07:34.536Z,1000.18
2016-10-23T01:07:56.305Z,1000.20
2016-10-23T01:08:18.033Z,1000.15
2016-10-23T01:08:39.772Z,1000.09
2016-10-23T01:09:01.523Z,1000.18
2016-10-23T01:09:23.268Z,1000.15
2016-10-23T01:09:47.427Z,1000.12
2016-10-23T01:10:09.174Z,1000.13
2016-10-23T01:10:30.904Z,1000.20
2016-10-23T01:10:52.635Z,1000.12
2016-10-23T01:11:14.361Z,1000.18
2016-10-23T01:11:36.154Z,1000.22
2016-10-23T01:11:57.909Z,1000.19
2016-10-23T01:12:19.679Z,1000.11
2016-10-23T01:12:41.430Z,1000.18
2016-10-23T01:13:03.199Z,1000.16
2016-10-23T01:13:25.010Z,1000.15
2016-10-23T01:13:46.891Z,1000.16
2016-10-23T01:14:08.741Z,1000.23
2016-10-23T01:14:30.588Z,1000.18
2016-10-23T01:14:52.334Z,1000.14
2016-10-23T01:15:14.063Z,1000.20
2016-10-23T01:15:36.791Z,1000.17
2016-10-23T01:15:58.519Z,1000.19
2016-10-23T01:16:20.249Z,1000.20
2016-10-23T01:16:41.978Z,1000.20
2016-10-23T01:17:03.737Z,1000.17
2016-10-23T01:17:26.446Z,1000.22
2016-10-23T01:17:48.192Z,1000.11
2016-10-23T01:18:09.903Z,1000.18
2016-10-23T01:18:58.140Z,1000.17
2016-10-23T01:19:19.866Z,1000.17
2016-10-23T01:20:08.095Z,1000.09
2016-10-23T01:20:29.862Z,1000.03
2016-10-23T01:20:51.784Z,1000.09
2016-10-23T01:21:13.593Z,1000.10
2016-10-23T01:21:35.407Z,1000.17
2016-10-23T01:21:57.241Z,1000.16
2016-10-23T01:22:19.038Z,1000.12
2016-10-23T01:22:40.778Z,1000.13
2016-10-23T01:23:03.518Z,1000.06
2016-10-23T01:23:25.390Z,1000.04
2016-10-23T01:23:47.175Z,1000.09
2016-10-23T01:24:09.100Z,1000.10
2016-10-23T01:24:31.022Z,1000.04
2016-10-23T01:24:52.760Z,1000.08
2016-10-23T01:25:15.478Z,1000.08
2016-10-23T01:25:37.215Z,1000.07
2016-10-23T01:25:59.041Z,1000.08
2016-10-23T01:26:20.767Z,1000.13
2016-10-23T01:26:42.494Z,1000.11
2016-10-23T01:27:04.224Z,1000.14
2016-10-23T01:27:25.945Z,1000.14
2016-10-23T01:27:47.674Z,1000.11
2016-10-23T01:28:09.422Z,1000.12
2016-10-23T01:28:31.172Z,1000.10
2016-10-23T01:28:52.898Z,1000.03
2016-10-23T01:29:14.636Z,1000.04
2016-10-23T01:29:36.409Z,1000.01
2016-10-23T01:30:24.624Z,999.99
2016-10-23T01:30:46.368Z,999.99
2016-10-23T01:31:08.179Z,1000.02
2016-10-23T01:31:29.951Z,1000.05
2016-10-23T01:31:51.700Z,999.99
2016-10-23T01:32:13.424Z,1000.07
2016-10-23T01:32:35.152Z,1000.06
2016-10-23T01:32:56.930Z,1000.09
2016-10-23T01:33:18.786Z,1000.07
2016-10-23T01:33:40.509Z,1000.07
2016-10-23T01:34:02.244Z,1000.06
2016-10-23T01:34:23.975Z,999.98
2016-10-23T01:34:45.707Z,999.95
2016-10-23T01:35:07.427Z,1000.03
2016-10-23T01:35:29.156Z,1000.02
2016-10-23T01:35:50.889Z,1000.07
2016-10-23T01:36:12.616Z,1000.08
2016-10-23T01:36:35.341Z,1000.13
2016-10-23T01:36:57.074Z,1000.07
2016-10-23T01:37:18.802Z,999.98
2016-10-23T01:37:40.585Z,999.92
2016-10-23T01:38:02.372Z,999.95
2016-10-23T01:38:24.148Z,999.91
2016-10-23T01:38:45.957Z,999.96
2016-10-23T01:39:07.818Z,999.87
2016-10-23T01:39:29.612Z,1000.02
2016-10-23T01:39:51.389Z,999.99
2016-10-23T01:40:13.147Z,999.97
2016-10-23T01:40:34.878Z,1000.00
2016-10-23T01:40:56.608Z,999.93
2016-10-23T01:41:18.356Z,999.96
2016-10-23T01:41:40.107Z,999.95
2016-10-23T01:42:01.813Z,999.91
2016-10-23T01:42:23.549Z,999.91
2016-10-23T01:42:45.303Z,999.90
2016-10-23T01:43:07.030Z,999.87
2016-10-23T01:43:28.756Z,999.87
2016-10-23T01:43:50.489Z,999.90
2016-10-23T01:44:12.215Z,999.97
2016-10-23T01:44:33.947Z,999.95
2016-10-23T01:44:55.668Z,999.97
2016-10-23T01:45:23.176Z,999.96
2016-10-23T01:45:47.810Z,1000.03
2016-10-23T01:46:09.665Z,1000.01
2016-10-23T01:46:31.582Z,999.96
2016-10-23T01:46:53.476Z,1000.01
2016-10-23T01:47:15.244Z,999.91
2016-10-23T01:47:37.061Z,999.96
2016-10-23T01:48:03.596Z,999.90
2016-10-23T01:48:25.339Z,999.91
2016-10-23T01:48:47.175Z,999.99
2016-10-23T01:49:08.895Z,999.98
2016-10-23T01:49:30.622Z,999.99
2016-10-23T01:49:53.419Z,999.99
2016-10-23T01:50:15.219Z,999.99
2016-10-23T01:50:36.955Z,1000.00
2016-10-23T01:50:58.675Z,1000.05
2016-10-23T01:51:20.395Z,999.92
2016-10-23T01:51:42.124Z,999.99
2016-10-23T01:52:03.843Z,1000.03
2016-10-23T01:52:25.596Z,999.91
2016-10-23T01:52:48.319Z,999.90
2016-10-23T01:53:10.068Z,999.97
2016-10-23T01:53:31.802Z,999.93
2016-10-23T01:53:53.540Z,999.92
2016-10-23T01:54:15.259Z,999.95
2016-10-23T01:54:36.987Z,999.93
2016-10-23T01:54:58.724Z,999.97
2016-10-23T01:55:20.520Z,1000.00
2016-10-23T01:55:42.312Z,999.97
2016-10-23T01:56:04.229Z,999.99
2016-10-23T01:56:25.960Z,1000.00
2016-10-23T01:56:47.699Z,999.97
2016-10-23T01:57:09.427Z,999.98
2016-10-23T01:57:31.152Z,999.99
2016-10-23T01:57:52.876Z,999.95
2016-10-23T01:58:41.102Z,999.80
2016-10-23T01:59:02.827Z,999.83
2016-10-23T01:59:24.547Z,999.85
2016-10-23T01:59:46.265Z,999.90
2016-10-23T02:00:07.995Z,999.92
2016-10-23T02:00:30.738Z,999.92
2016-10-23T02:00:52.459Z,999.94
2016-10-23T02:01:14.210Z,999.91
2016-10-23T02:01:35.980Z,999.88
2016-10-23T02:01:57.676Z,999.94
2016-10-23T02:02:19.454Z,999.87
2016-10-23T02:02:41.177Z,999.85
2016-10-23T02:03:02.922Z,999.90
2016-10-23T02:03:24.661Z,999.84
2016-10-23T02:03:46.381Z,999.83
2016-10-23T02:04:08.103Z,999.87
2016-10-23T02:04:29.829Z,999.86
2016-10-23T02:04:51.566Z,999.78
2016-10-23T02:05:13.303Z,999.78
2016-10-23T02:05:35.023Z,999.77
2016-10-23T02:05:56.748Z,999.81
2016-10-23T02:06:18.495Z,999.85
2016-10-23T02:06:41.215Z,999.83
2016-10-23T02:07:02.949Z,999.80
2016-10-23T02:07:24.703Z,999.84
2016-10-23T02:07:46.489Z,999.83
2016-10-23T02:08:08.213Z,999.76
2016-10-23T02:08:30.067Z,999.81
2016-10-23T02:08:51.802Z,999.81
2016-10-23T02:09:13.523Z,999.80
2016-10-23T02:09:35.368Z,999.77
2016-10-23T02:09:57.099Z,999.78
2016-10-23T02:10:18.843Z,999.70
2016-10-23T02:10:40.740Z,999.75
2016-10-23T02:11:02.566Z,999.79
2016-10-23T02:11:24.318Z,999.75
2016-10-23T02:11:47.202Z,999.74
2016-10-23T02:12:09.097Z,999.75
2016-10-23T02:12:30.815Z,999.69
2016-10-23T02:12:52.618Z,999.72
2016-10-23T02:13:14.342Z,999.67
2016-10-23T02:13:36.147Z,999.74
2016-10-23T02:13:57.881Z,999.75
2016-10-23T02:14:19.665Z,999.73
2016-10-23T02:14:41.408Z,999.63
2016-10-23T02:15:03.176Z,999.72
2016-10-23T02:15:25.004Z,999.78
2016-10-23T02:15:46.812Z,999.73
2016-10-23T02:16:08.540Z,999.73
2016-10-23T02:16:30.258Z,999.69
2016-10-23T02:16:52.981Z,999.73
2016-10-23T02:17:14.710Z,999.74
2016-10-23T02:17:36.455Z,999.67
2016-10-23T02:17:58.169Z,999.63
2016-10-23T02:18:20.022Z,999.63
2016-10-23T02:18:42.758Z,999.63
2016-10-23T02:19:04.526Z,999.59
2016-10-23T02:19:26.263Z,999.64
2016-10-23T02:19:47.995Z,999.70
2016-10-23T02:20:09.759Z,999.66
2016-10-23T02:20:31.658Z,999.65
2016-10-23T02:20:53.520Z,999.65
2016-10-23T02:21:15.371Z,999.63
2016-10-23T02:21:37.109Z,999.58
2016-10-23T02:21:58.842Z,999.63
2016-10-23T02:22:20.563Z,999.67
2016-10-23T02:22:42.294Z,999.64
2016-10-23T02:23:04.017Z,999.69
2016-10-23T02:23:25.810Z,999.67
2016-10-23T02:23:47.556Z,999.68
2016-10-23T02:24:09.276Z,999.69
2016-10-23T02:24:31.017Z,999.60
2016-10-23T02:24:52.752Z,999.67
2016-10-23T02:25:14.519Z,999.64
2016-10-23T02:25:36.277Z,999.67
2016-10-23T02:25:58.013Z,999.64
2016-10-23T02:26:19.742Z,999.66
2016-10-23T02:26:46.233Z,999.66
2016-10-23T02:27:07.967Z,999.63
2016-10-23T02:27:29.710Z,999.64
2016-10-23T02:27:51.466Z,999.63
2016-10-23T02:28:13.168Z,999.64
2016-10-23T02:28:34.895Z,999.64
2016-10-23T02:28:56.622Z,999.59
2016-10-23T02:29:23.119Z,999.64
2016-10-23T02:29:44.849Z,999.59
2016-10-23T02:30:06.569Z,999.67
2016-10-23T02:30:28.297Z,999.74
2016-10-23T02:30:50.033Z,999.65
2016-10-23T02:31:11.760Z,999.75
2016-10-23T02:31:33.481Z,999.88
2016-10-23T02:31:55.244Z,999.76
2016-10-23T02:32:21.801Z,999.80
2016-10-23T02:32:43.594Z,999.73
2016-10-23T02:33:05.388Z,999.70
2016-10-23T02:33:27.212Z,999.71
2016-10-23T02:33:48.992Z,999.70
2016-10-23T02:34:10.771Z,999.71
2016-10-23T02:34:32.487Z,999.67
2016-10-23T02:34:54.204Z,999.67
2016-10-23T02:35:16.939Z,999.67
2016-10-23T02:35:38.675Z,999.67
2016-10-23T02:36:00.413Z,999.61
2016-10-23T02:36:22.139Z,999.63
2016-10-23T02:36:43.876Z,999.55
2016-10-23T02:37:05.737Z,999.57
2016-10-23T02:37:27.501Z,999.66
2016-10-23T02:37:49.285Z,999.58
2016-10-23T02:38:11.054Z,999.60
2016-10-23T02:38:32.922Z,999.60
2016-10-23T02:38:54.645Z,999.59
2016-10-23T02:39:16.506Z,999.63
2016-10-23T02:39:38.232Z,999.61
2016-10-23T02:39:59.978Z,999.66
2016-10-23T02:40:21.776Z,999.55
2016-10-23T02:40:43.598Z,999.60
2016-10-23T02:41:05.476Z,999.57
2016-10-23T02:41:27.220Z,999.57
2016-10-23T02:42:15.486Z,999.53
2016-10-23T02:42:39.887Z,999.55
2016-10-23T02:43:01.612Z,999.57
2016-10-23T02:43:23.333Z,999.58
2016-10-23T02:43:45.066Z,999.55
2016-10-23T02:44:06.792Z,999.57
2016-10-23T02:44:29.512Z,999.52
2016-10-23T02:44:51.320Z,999.59
2016-10-23T02:45:13.097Z,999.54
2016-10-23T02:45:34.820Z,999.58
2016-10-23T02:45:56.553Z,999.57
2016-10-23T02:46:18.274Z,999.57
2016-10-23T02:46:40.007Z,999.58
2016-10-23T02:47:01.737Z,999.56
2016-10-23T02:47:23.470Z,999.54
2016-10-23T02:47:45.209Z,999.54
2016-10-23T02:48:06.945Z,999.54
2016-10-23T02:48:28.669Z,999.54
2016-10-23T02:48:50.385Z,999.52
2016-10-23T02:49:12.103Z,999.56
2016-10-23T02:49:33.830Z,999.55
2016-10-23T02:49:55.555Z,999.57
2016-10-23T02:50:17.365Z,999.52
2016-10-23T02:50:39.088Z,999.53
2016-10-23T02:51:00.825Z,999.59
2016-10-23T02:51:22.562Z,999.60
2016-10-23T02:51:44.269Z,999.50
2016-10-23T02:52:05.997Z,999.52
2016-10-23T02:52:27.725Z,999.46
2016-10-23T02:52:49.467Z,999.50
2016-10-23T02:53:11.217Z,999.44
2016-10-23T02:53:32.942Z,999.53
2016-10-23T02:53:54.673Z,999.46
2016-10-23T02:54:16.521Z,999.49
2016-10-23T02:54:38.271Z,999.52
2016-10-23T02:54:59.990Z,999.49
2016-10-23T02:55:22.035Z,999.59
2016-10-23T02:55:43.832Z,999.54
2016-10-23T02:56:05.715Z,999.50
2016-10-23T02:56:27.476Z,999.59
2016-10-23T02:56:49.323Z,999.56
2016-10-23T02:57:11.167Z,999.54
2016-10-23T02:57:33.081Z,999.54
2016-10-23T02:57:54.871Z,999.48
2016-10-23T02:58:16.745Z,999.51
2016-10-23T02:58:38.483Z,999.50
2016-10-23T02:59:00.305Z,999.50
2016-10-23T02:59:22.137Z,999.41
2016-10-23T02:59:44.041Z,999.39
2016-10-23T03:00:05.818Z,999.43
2016-10-23T03:00:27.790Z,999.52
2016-10-23T03:00:49.518Z,999.56
2016-10-23T03:01:11.244Z,999.48
2016-10-23T03:01:32.963Z,999.43
2016-10-23T03:01:54.696Z,999.48
2016-10-23T03:02:16.438Z,999.47
2016-10-23T03:02:38.176Z,999.51
2016-10-23T03:02:59.963Z,999.45
2016-10-23T03:03:21.691Z,999.44
2016-10-23T03:03:43.414Z,999.45
2016-10-23T03:04:05.140Z,999.37
2016-10-23T03:04:26.874Z,999.45
2016-10-23T03:04:53.415Z,999.48
2016-10-23T03:05:15.215Z,999.51
2016-10-23T03:05:37.118Z,999.45
2016-10-23T03:05:58.875Z,999.42
2016-10-23T03:06:20.614Z,999.38
2016-10-23T03:06:42.341Z,999.46
2016-10-23T03:07:04.061Z,999.47
2016-10-23T03:07:25.798Z,999.57
2016-10-23T03:07:47.524Z,999.47
2016-10-23T03:08:09.262Z,999.50
2016-10-23T03:08:31.061Z,999.47
2016-10-23T03:08:52.897Z,999.43
2016-10-23T03:09:14.683Z,999.37
2016-10-23T03:09:36.418Z,999.46
2016-10-23T03:09:58.156Z,999.48
2016-10-23T03:10:19.890Z,999.47
2016-10-23T03:10:41.614Z,999.41
2016-10-23T03:11:03.353Z,999.43
2016-10-23T03:11:25.115Z,999.47
2016-10-23T03:11:46.976Z,999.43
2016-10-23T03:12:08.880Z,999.43
2016-10-23T03:12:30.730Z,999.37
2016-10-23T03:12:52.584Z,999.36
2016-10-23T03:13:14.620Z,999.39
2016-10-23T03:13:36.415Z,999.42
2016-10-23T03:13:58.195Z,999.49
2016-10-23T03:14:20.082Z,999.37
2016-10-23T03:14:41.922Z,999.44
2016-10-23T03:15:03.772Z,999.44
2016-10-23T03:15:25.514Z,999.43
2016-10-23T03:15:47.353Z,999.40
2016-10-23T03:16:09.203Z,999.47
2016-10-23T03:16:31.050Z,999.44
2016-10-23T03:16:52.957Z,999.50
2016-10-23T03:17:14.801Z,999.49
2016-10-23T03:17:37.626Z,999.51
2016-10-23T03:17:59.411Z,999.50
2016-10-23T03:18:21.259Z,999.53
2016-10-23T03:18:43.014Z,999.53
2016-10-23T03:19:04.832Z,999.41
2016-10-23T03:19:26.643Z,999.50
2016-10-23T03:19:48.407Z,999.44
2016-10-23T03:20:10.139Z,999.41
2016-10-23T03:20:31.875Z,999.50
2016-10-23T03:20:53.607Z,999.40
2016-10-23T03:21:41.839Z,999.40
2016-10-23T03:22:03.567Z,999.42
2016-10-23T03:22:25.357Z,999.35
2016-10-23T03:22:47.181Z,999.48
2016-10-23T03:23:08.966Z,999.42
2016-10-23T03:23:30.749Z,999.39
2016-10-23T03:23:52.501Z,999.44
2016-10-23T03:24:19.018Z,999.36
2016-10-23T03:24:40.756Z,999.36
2016-10-23T03:25:02.489Z,999.36
2016-10-23T03:25:24.220Z,999.44
2016-10-23T03:25:45.946Z,999.42
2016-10-23T03:26:07.676Z,999.43
2016-10-23T03:26:29.414Z,999.49
2016-10-23T03:26:51.160Z,999.38
2016-10-23T03:27:12.918Z,999.33
2016-10-23T03:27:34.704Z,999.33
2016-10-23T03:27:56.535Z,999.39
2016-10-23T03:28:18.406Z,999.52
2016-10-23T03:28:40.195Z,999.42
2016-10-23T03:29:01.938Z,999.42
2016-10-23T03:29:23.684Z,999.36
2016-10-23T03:29:45.439Z,999.24
2016-10-23T03:30:08.163Z,999.29
2016-10-23T03:30:29.890Z,999.33
2016-10-23T03:30:51.607Z,999.31
2016-10-23T03:31:13.326Z,999.26
2016-10-23T03:31:35.118Z,999.31
2016-10-23T03:31:56.907Z,999.37
2016-10-23T03:32:18.639Z,999.38
2016-10-23T03:32:41.365Z,999.44
2016-10-23T03:33:03.107Z,999.38
2016-10-23T03:33:24.849Z,999.32
2016-10-23T03:33:46.578Z,999.32
2016-10-23T03:34:08.308Z,999.34
2016-10-23T03:34:30.088Z,999.29
2016-10-23T03:34:51.902Z,999.35
2016-10-23T03:35:14.656Z,999.36
2016-10-23T03:35:36.427Z,999.45
2016-10-23T03:35:58.158Z,999.40
2016-10-23T03:36:19.877Z,999.40
2016-10-23T03:36:41.611Z,999.33
2016-10-23T03:37:03.405Z,999.44
2016-10-23T03:37:25.143Z,999.46
2016-10-23T03:37:46.863Z,999.46
2016-10-23T03:38:08.609Z,999.31
2016-10-23T03:38:30.339Z,999.35
2016-10-23T03:38:52.333Z,999.36
2016-10-23T03:39:14.149Z,999.35
2016-10-23T03:39:36.076Z,999.43
2016-10-23T03:39:57.945Z,999.41
2016-10-23T03:40:19.667Z,999.46
2016-10-23T03:40:41.402Z,999.43
2016-10-23T03:41:03.122Z,999.36
2016-10-23T03:41:24.846Z,999.41
2016-10-23T03:41:46.566Z,999.43
2016-10-23T03:42:08.311Z,999.42
2016-10-23T03:42:30.054Z,999.44
2016-10-23T03:42:51.814Z,999.43
2016-10-23T03:43:13.586Z,999.41
2016-10-23T03:43:35.321Z,999.38
2016-10-23T03:43:57.099Z,999.29
2016-10-23T03:44:18.876Z,999.34
2016-10-23T03:44:40.725Z,999.37
2016-10-23T03:45:02.442Z,999.39
2016-10-23T03:45:24.174Z,999.36
2016-10-23T03:45:45.899Z,999.41
2016-10-23T03:46:07.631Z,999.38
2016-10-23T03:46:29.361Z,999.41
2016-10-23T03:46:51.188Z,999.42
2016-10-23T03:47:13.163Z,999.48
2016-10-23T03:47:35.196Z,999.39
2016-10-23T03:47:57.004Z,999.42
2016-10-23T03:48:21.644Z,999.28
2016-10-23T03:48:43.437Z,999.38
2016-10-23T03:49:05.339Z,999.46
2016-10-23T03:49:27.071Z,999.53
2016-10-23T03:49:48.824Z,999.49
2016-10-23T03:50:10.609Z,999.42
2016-10-23T03:50:32.715Z,999.38
2016-10-23T03:50:54.589Z,999.43
2016-10-23T03:51:21.196Z,999.45
2016-10-23T03:51:42.924Z,999.44
2016-10-23T03:52:04.662Z,999.46
2016-10-23T03:52:26.375Z,999.49
2016-10-23T03:52:48.126Z,999.44
2016-10-23T03:53:14.623Z,999.32
2016-10-23T03:53:36.440Z,999.37
2016-10-23T03:53:58.161Z,999.43
2016-10-23T03:54:20.896Z,999.56
2016-10-23T03:54:42.635Z,999.38
2016-10-23T03:55:05.361Z,999.53
2016-10-23T03:55:28.121Z,999.65
2016-10-23T03:55:49.852Z,999.59
2016-10-23T03:56:11.739Z,999.50
2016-10-23T03:56:33.509Z,999.48
2016-10-23T03:56:55.415Z,999.56
2016-10-23T03:57:17.276Z,999.50
2016-10-23T03:57:39.155Z,999.55
2016-10-23T03:58:00.904Z,999.53
2016-10-23T03:58:22.645Z,999.50
2016-10-23T03:58:44.376Z,999.40
2016-10-23T03:59:32.713Z,999.38
2016-10-23T03:59:54.438Z,999.33
2016-10-23T04:00:16.244Z,999.36
2016-10-23T04:00:37.960Z,999.36
2016-10-23T04:00:59.684Z,999.46
2016-10-23T04:01:21.405Z,999.46
2016-10-23T04:01:43.147Z,999.47
2016-10-23T04:02:04.893Z,999.46
2016-10-23T04:02:26.694Z,999.52
2016-10-23T04:02:48.499Z,999.43
2016-10-23T04:03:10.271Z,999.41
2016-10-23T04:03:32.028Z,999.47
2016-10-23T04:03:53.949Z,999.32
2016-10-23T04:04:15.682Z,999.35
2016-10-23T04:04:38.409Z,999.32
2016-10-23T04:05:00.132Z,999.37
2016-10-23T04:05:21.862Z,999.43
2016-10-23T04:05:43.614Z,999.33
2016-10-23T04:06:05.345Z,999.40
2016-10-23T04:06:27.056Z,999.44
2016-10-23T04:06:48.774Z,999.46
2016-10-23T04:07:10.538Z,999.50
2016-10-23T04:07:32.317Z,999.43
2016-10-23T04:07:54.177Z,999.56
2016-10-23T04:08:16.079Z,999.68
2016-10-23T04:08:37.927Z,999.61
2016-10-23T04:08:59.954Z,999.58
2016-10-23T04:09:21.681Z,999.31
2016-10-23T04:09:43.488Z,999.26
2016-10-23T04:10:05.338Z,999.37
2016-10-23T04:10:27.142Z,999.27
2016-10-23T04:10:48.911Z,999.34
2016-10-23T04:11:11.635Z,999.50
2016-10-23T04:11:33.384Z,999.53
2016-10-23T04:11:55.096Z,999.47
2016-10-23T04:12:16.869Z,999.57
2016-10-23T04:12:38.601Z,999.55
2016-10-23T04:13:00.398Z,999.54
2016-10-23T04:13:22.213Z,999.54
2016-10-23T04:13:43.983Z,999.46
2016-10-23T04:14:05.892Z,999.40
2016-10-23T04:14:27.714Z,999.39
2016-10-23T04:14:49.454Z,999.44
2016-10-23T04:15:11.235Z,999.37
2016-10-23T04:15:32.970Z,999.26
2016-10-23T04:15:54.746Z,999.35
2016-10-23T04:16:21.441Z,999.35
2016-10-23T04:16:43.311Z,999.37
2016-10-23T04:17:05.165Z,999.39
2016-10-23T04:17:27.002Z,999.51
2016-10-23T04:17:48.958Z,999.53
2016-10-23T04:18:10.674Z,999.49
2016-10-23T04:18:32.430Z,999.55
2016-10-23T04:18:54.244Z,999.38
2016-10-23T04:19:16.991Z,999.30
2016-10-23T04:19:38.797Z,999.39
2016-10-23T04:20:00.538Z,999.41
2016-10-23T04:20:23.269Z,999.44
2016-10-23T04:20:45.044Z,999.59
2016-10-23T04:21:06.790Z,999.59
2016-10-23T04:21:28.606Z,999.52
2016-10-23T04:21:50.487Z,999.48
2016-10-23T04:22:12.316Z,999.41
2016-10-23T04:22:34.182Z,999.41
2016-10-23T04:22:55.904Z,999.45
2016-10-23T04:23:17.644Z,999.52
2016-10-23T04:23:39.362Z,999.53
2016-10-23T04:24:01.091Z,999.68
2016-10-23T04:24:22.827Z,999.60
2016-10-23T04:24:49.320Z,999.51
2016-10-23T04:25:11.045Z,999.36
2016-10-23T04:25:32.778Z,999.45
2016-10-23T04:25:54.517Z,999.53
2016-10-23T04:26:16.243Z,999.53
2016-10-23T04:26:37.981Z,999.59
2016-10-23T04:26:59.716Z,999.60
2016-10-23T04:27:21.481Z,999.48
2016-10-23T04:27:43.209Z,999.42
2016-10-23T04:28:04.956Z,999.48
2016-10-23T04:28:26.873Z,999.59
2016-10-23T04:28:48.774Z,999.51
2016-10-23T04:29:10.584Z,999.53
2016-10-23T04:29:32.343Z,999.51
2016-10-23T04:29:54.066Z,999.58
2016-10-23T04:30:15.926Z,999.62
2016-10-23T04:30:37.682Z,999.40
2016-10-23T04:30:59.376Z,999.56
2016-10-23T04:31:21.096Z,999.54
2016-10-23T04:31:42.897Z,999.65
2016-10-23T04:32:04.665Z,999.71
2016-10-23T04:32:26.448Z,999.56
2016-10-23T04:32:48.397Z,999.46
2016-10-23T04:33:10.140Z,999.56
2016-10-23T04:33:31.930Z,999.65
2016-10-23T04:33:53.653Z,999.63
2016-10-23T04:34:15.461Z,999.72
2016-10-23T04:34:37.418Z,999.61